Terminal Aerodrome Forecast
Issued by NWS

Current Version | Previous Version | Text Only | Print | Product List | Glossary On
Versions: 1 2 3 4 5 6 7 8 9 10 11 12 13 14 15 16 17 18 19 20 21 22 23 24 25 26 27 28 29 30 31 32 33 34 35 36 37 38 39
000
FTUS44 KHGX 011507 AAA
TAFCXO
TAF AMD
KCXO 011507Z 0115/0212 20008KT P6SM BKN050
      TEMPO 0115/0116 BKN010
     FM011800 23010KT P6SM VCSH BKN025
     FM012300 34013G20KT P6SM VCSH BKN015 OVC050
     FM020300 34012G18KT P6SM BKN250
     FM020900 34010KT P6SM SCT250=

USA.gov is the U.S. government's official web portal to all federal, state and local government web resources and services.